createdAt,value
2023-04-22T00:00:17.311Z,11.90
2023-04-22T00:02:45.754Z,9.98
2023-04-22T00:05:15.930Z,10.25
2023-04-22T00:07:46.021Z,10.00
2023-04-22T00:10:13.910Z,10.07
2023-04-22T00:12:41.264Z,10.73
2023-04-22T00:15:09.233Z,10.63
2023-04-22T00:17:36.528Z,10.23
2023-04-22T00:20:04.467Z,9.68
2023-04-22T00:22:32.758Z,11.05
2023-04-22T00:24:59.946Z,11.18
2023-04-22T00:27:27.178Z,10.20
2023-04-22T00:29:54.426Z,9.82
2023-04-22T00:32:22.724Z,10.50
2023-04-22T00:34:50.805Z,10.75
2023-04-22T00:37:18.342Z,10.25
2023-04-22T00:39:46.287Z,9.35
2023-04-22T00:42:14.046Z,10.20
2023-04-22T00:44:42.428Z,9.75
2023-04-22T00:47:10.384Z,10.27
2023-04-22T00:49:38.322Z,10.13
2023-04-22T00:52:05.909Z,10.10
2023-04-22T00:54:35.540Z,9.57
2023-04-22T00:57:05.409Z,10.18
2023-04-22T00:59:32.802Z,9.70
2023-04-22T01:02:00.635Z,10.63
2023-04-22T01:04:28.188Z,9.90
2023-04-22T01:06:55.602Z,9.75
2023-04-22T01:09:22.902Z,10.25
2023-04-22T01:11:50.398Z,9.90
2023-04-22T01:14:17.667Z,10.95
2023-04-22T01:16:46.375Z,10.30
2023-04-22T01:19:13.879Z,10.82
2023-04-22T01:21:45.060Z,9.82
2023-04-22T01:24:12.364Z,9.75
2023-04-22T01:26:39.991Z,10.70
2023-04-22T01:29:07.539Z,11.20
2023-04-22T01:31:35.541Z,9.90
2023-04-22T01:34:04.508Z,11.30
2023-04-22T01:36:32.847Z,10.63
2023-04-22T01:39:00.782Z,10.75
2023-04-22T01:41:28.926Z,10.27
2023-04-22T01:43:59.201Z,10.32
2023-04-22T01:46:28.289Z,10.68
2023-04-22T01:48:55.726Z,11.43
2023-04-22T01:51:25.971Z,10.32
2023-04-22T01:53:53.613Z,11.35
2023-04-22T01:56:24.696Z,11.70
2023-04-22T01:58:51.931Z,11.30
2023-04-22T02:01:20.056Z,10.52
2023-04-22T02:03:47.314Z,11.23
2023-04-22T02:06:14.706Z,10.90
2023-04-22T02:08:42.122Z,11.60
2023-04-22T02:11:09.374Z,10.77
2023-04-22T02:13:38.567Z,11.55
2023-04-22T02:16:08.295Z,10.35
2023-04-22T02:18:36.048Z,11.10
2023-04-22T02:21:03.720Z,10.50
2023-04-22T02:23:31.356Z,11.25
2023-04-22T02:25:58.727Z,11.43
2023-04-22T02:28:26.113Z,10.75
2023-04-22T02:30:53.484Z,11.32
2023-04-22T02:33:23.476Z,10.52
2023-04-22T02:35:52.287Z,11.40
2023-04-22T02:38:20.220Z,11.65
2023-04-22T02:40:47.569Z,10.63
2023-04-22T02:43:15.234Z,11.43
2023-04-22T02:45:42.492Z,9.90
2023-04-22T02:48:11.636Z,12.02
2023-04-22T02:50:38.900Z,11.30
2023-04-22T02:53:06.390Z,10.55
2023-04-22T02:55:33.689Z,11.57
2023-04-22T02:58:01.106Z,11.35
2023-04-22T03:00:28.513Z,10.82
2023-04-22T03:02:56.172Z,11.13
2023-04-22T03:05:30.219Z,10.65
2023-04-22T03:07:57.535Z,10.13
2023-04-22T03:10:24.768Z,10.15
2023-04-22T03:12:52.217Z,10.65
2023-04-22T03:15:21.701Z,10.55
2023-04-22T03:17:49.696Z,10.88
2023-04-22T03:20:20.061Z,11.73
2023-04-22T03:22:47.929Z,11.07
2023-04-22T03:25:16.740Z,10.55
2023-04-22T03:27:50.113Z,10.68
2023-04-22T03:30:17.289Z,10.80
2023-04-22T03:32:44.753Z,11.02
2023-04-22T03:35:21.287Z,10.23
2023-04-22T03:37:50.940Z,11.07
2023-04-22T03:40:23.163Z,11.10
2023-04-22T03:42:50.489Z,10.38
2023-04-22T03:45:20.197Z,10.90
2023-04-22T03:47:55.790Z,11.02
2023-04-22T03:50:29.774Z,11.48
2023-04-22T03:52:58.605Z,11.18
2023-04-22T03:55:25.749Z,10.70
2023-04-22T03:57:54.627Z,10.68
2023-04-22T04:00:21.987Z,10.95
2023-04-22T04:03:00.279Z,10.10
2023-04-22T04:05:28.428Z,10.45
2023-04-22T04:07:56.671Z,10.60
2023-04-22T04:10:25.923Z,11.00
2023-04-22T04:12:55.157Z,9.93
2023-04-22T04:15:25.123Z,10.20
2023-04-22T04:17:53.218Z,10.20
2023-04-22T04:20:21.601Z,10.70
2023-04-22T04:22:48.922Z,11.15
2023-04-22T04:25:16.227Z,10.13
2023-04-22T04:27:47.672Z,11.93
2023-04-22T04:30:16.427Z,10.30
2023-04-22T04:32:51.290Z,11.15
2023-04-22T04:35:20.364Z,10.52
2023-04-22T04:37:53.969Z,10.38
2023-04-22T04:40:22.015Z,11.57
2023-04-22T04:43:02.636Z,11.13
2023-04-22T04:45:39.156Z,11.20
2023-04-22T04:48:08.038Z,11.30
2023-04-22T04:50:38.358Z,11.60
2023-04-22T04:53:07.257Z,12.82
2023-04-22T04:55:39.076Z,11.32
2023-04-22T04:58:12.545Z,11.32
2023-04-22T05:00:39.827Z,11.07
2023-04-22T05:03:08.901Z,10.02
2023-04-22T05:05:36.620Z,10.55
2023-04-22T05:08:03.831Z,11.15
2023-04-22T05:10:32.271Z,10.52
2023-04-22T05:13:00.403Z,11.57
2023-04-22T05:15:29.977Z,10.73
2023-04-22T05:17:57.606Z,10.35
2023-04-22T05:20:25.781Z,11.23
2023-04-22T05:22:53.308Z,10.70
2023-04-22T05:25:21.012Z,10.93
2023-04-22T05:27:58.116Z,11.07
2023-04-22T05:30:29.223Z,11.00
2023-04-22T05:32:56.766Z,10.50
2023-04-22T05:35:24.033Z,10.02
2023-04-22T05:37:51.306Z,10.57
2023-04-22T05:40:19.171Z,11.27
2023-04-22T05:42:47.865Z,11.15
2023-04-22T05:45:15.814Z,10.85
2023-04-22T05:47:43.340Z,13.00
2023-04-22T05:50:11.300Z,11.10
2023-04-22T05:52:52.690Z,11.02
2023-04-22T05:55:24.486Z,11.15
2023-04-22T05:57:51.901Z,11.40
2023-04-22T06:00:30.348Z,11.10
2023-04-22T06:03:15.134Z,10.88
2023-04-22T06:05:44.321Z,10.70
2023-04-22T06:08:11.658Z,11.57
2023-04-22T06:10:38.905Z,11.48
2023-04-22T06:13:06.421Z,11.43
2023-04-22T06:15:34.876Z,12.07
2023-04-22T06:18:02.592Z,11.27
2023-04-22T06:20:32.699Z,10.18
2023-04-22T06:23:00.036Z,11.43
2023-04-22T06:25:27.432Z,10.85
2023-04-22T06:27:54.701Z,11.27
2023-04-22T06:30:23.611Z,10.63
2023-04-22T06:32:52.764Z,10.15
2023-04-22T06:35:21.266Z,11.50
2023-04-22T06:37:49.260Z,11.00
2023-04-22T06:40:17.137Z,10.45
2023-04-22T06:43:03.277Z,10.50
2023-04-22T06:45:50.967Z,9.88
2023-04-22T06:48:39.405Z,10.00
2023-04-22T06:51:33.569Z,6.57
2023-04-22T06:54:01.953Z,8.98
2023-04-22T06:56:29.371Z,9.70
2023-04-22T06:58:56.601Z,8.80
2023-04-22T07:01:24.088Z,9.75
2023-04-22T07:03:51.772Z,9.73
2023-04-22T07:06:20.498Z,9.88
2023-04-22T07:08:47.920Z,9.23
2023-04-22T07:11:15.556Z,8.52
2023-04-22T07:13:51.978Z,9.20
2023-04-22T07:16:19.562Z,9.93
2023-04-22T07:18:46.790Z,9.60
2023-04-22T07:21:14.028Z,8.82
2023-04-22T07:23:41.314Z,10.73
2023-04-22T07:26:08.514Z,9.57
2023-04-22T07:28:35.818Z,9.85
2023-04-22T07:31:03.508Z,9.85
2023-04-22T07:33:30.892Z,10.05
2023-04-22T07:35:58.084Z,10.10
2023-04-22T07:38:25.767Z,10.55
2023-04-22T07:40:53.203Z,10.90
2023-04-22T07:43:20.519Z,10.60
2023-04-22T07:45:47.743Z,10.57
2023-04-22T07:48:15.105Z,10.25
2023-04-22T07:50:42.391Z,10.20
2023-04-22T07:53:10.885Z,10.68
2023-04-22T07:55:38.230Z,10.20
2023-04-22T07:58:06.704Z,10.98
2023-04-22T08:00:35.449Z,10.70
2023-04-22T08:03:03.990Z,10.80
2023-04-22T08:05:31.379Z,11.20
2023-04-22T08:07:58.893Z,10.93
2023-04-22T08:10:26.393Z,10.35
2023-04-22T08:12:53.699Z,11.00
2023-04-22T08:15:20.849Z,10.70
2023-04-22T08:17:49.102Z,11.50
2023-04-22T08:20:18.104Z,12.25
2023-04-22T08:22:45.710Z,10.73
2023-04-22T08:25:13.025Z,11.40
2023-04-22T08:27:40.499Z,11.05
2023-04-22T08:30:08.602Z,11.18
2023-04-22T08:32:36.036Z,10.25
2023-04-22T08:35:05.453Z,10.50
2023-04-22T08:37:34.668Z,10.55
2023-04-22T08:40:02.244Z,11.15
2023-04-22T08:42:31.638Z,9.75
2023-04-22T08:44:58.929Z,10.60
2023-04-22T08:47:27.085Z,11.10
2023-04-22T08:49:56.461Z,10.75
2023-04-22T08:52:23.703Z,10.75
2023-04-22T08:54:51.297Z,8.93
2023-04-22T08:57:19.352Z,10.85
2023-04-22T08:59:46.857Z,10.95
2023-04-22T09:02:19.328Z,10.68
2023-04-22T09:04:52.535Z,10.43
2023-04-22T09:07:25.248Z,9.60
2023-04-22T09:09:54.801Z,10.30
2023-04-22T09:12:23.316Z,9.80
2023-04-22T09:14:51.378Z,10.63
2023-04-22T09:17:30.140Z,9.80
2023-04-22T09:20:05.788Z,9.65
2023-04-22T09:22:44.949Z,9.07
2023-04-22T09:25:32.974Z,9.13
2023-04-22T09:28:00.313Z,8.40
2023-04-22T09:30:38.796Z,9.63
2023-04-22T09:33:07.340Z,8.70
2023-04-22T09:35:37.637Z,7.80
2023-04-22T09:38:09.976Z,8.93
2023-04-22T09:40:38.788Z,7.85
2023-04-22T09:43:08.590Z,7.22
2023-04-22T09:45:37.374Z,7.57
2023-04-22T09:48:11.990Z,8.57
2023-04-22T09:50:41.256Z,7.57
2023-04-22T09:53:10.875Z,7.53
2023-04-22T09:55:41.493Z,7.68
2023-04-22T09:58:13.446Z,6.93
2023-04-22T10:00:43.930Z,7.15
2023-04-22T10:03:11.461Z,6.75
2023-04-22T10:05:39.336Z,7.05
2023-04-22T10:08:07.997Z,6.10
2023-04-22T10:10:36.287Z,6.85
2023-04-22T10:13:07.097Z,6.65
2023-04-22T10:15:39.305Z,7.20
2023-04-22T10:18:12.012Z,6.40
2023-04-22T10:20:42.271Z,5.80
2023-04-22T10:23:20.377Z,6.15
2023-04-22T10:25:52.295Z,6.45
2023-04-22T10:28:21.871Z,5.78
2023-04-22T10:30:49.777Z,5.47
2023-04-22T10:33:29.065Z,6.03
2023-04-22T10:36:17.890Z,4.88
2023-04-22T10:38:51.104Z,5.20
2023-04-22T10:41:23.808Z,4.57
2023-04-22T10:43:59.753Z,4.55
2023-04-22T10:46:40.259Z,4.05
2023-04-22T10:49:09.242Z,4.05
2023-04-22T10:51:45.104Z,4.10
2023-04-22T10:54:30.580Z,3.63
2023-04-22T10:57:05.228Z,4.35
2023-04-22T10:59:53.881Z,4.05
2023-04-22T11:02:22.742Z,4.20
2023-04-22T11:04:52.299Z,4.60
2023-04-22T11:07:30.121Z,4.30
2023-04-22T11:10:07.052Z,3.50
2023-04-22T11:12:42.056Z,3.80
2023-04-22T11:15:14.089Z,3.40
2023-04-22T11:17:46.639Z,3.33
2023-04-22T11:20:18.386Z,4.07
2023-04-22T11:22:56.987Z,3.00
2023-04-22T11:25:25.793Z,3.80
2023-04-22T11:27:54.914Z,3.45
2023-04-22T11:30:24.136Z,3.80
2023-04-22T11:32:56.916Z,3.90
2023-04-22T11:35:27.102Z,4.07
2023-04-22T11:38:13.483Z,4.15
2023-04-22T11:40:46.222Z,3.88
2023-04-22T11:43:14.454Z,3.53
2023-04-22T11:45:42.463Z,3.45
2023-04-22T11:48:11.937Z,3.58
2023-04-22T11:50:41.249Z,3.50
2023-04-22T11:53:15.917Z,3.25
2023-04-22T11:55:45.195Z,3.22
2023-04-22T11:58:15.493Z,3.63
2023-04-22T12:00:53.641Z,4.72
2023-04-22T12:03:29.205Z,4.22
2023-04-22T12:06:04.998Z,3.63
2023-04-22T12:08:35.639Z,3.58
2023-04-22T12:11:05.116Z,4.05
2023-04-22T12:13:45.631Z,3.38
2023-04-22T12:16:19.765Z,3.67
2023-04-22T12:18:53.194Z,2.97
2023-04-22T12:21:23.712Z,3.53
2023-04-22T12:23:58.130Z,3.55
2023-04-22T12:26:27.631Z,3.60
2023-04-22T12:28:58.050Z,3.28
2023-04-22T12:31:26.017Z,2.90
2023-04-22T12:33:54.178Z,3.42
2023-04-22T12:36:21.735Z,3.20
2023-04-22T12:38:49.755Z,3.75
2023-04-22T12:41:17.301Z,2.85
2023-04-22T12:43:44.625Z,3.80
2023-04-22T12:46:12.133Z,2.90
2023-04-22T12:48:39.371Z,3.00
2023-04-22T12:51:07.162Z,3.28
2023-04-22T12:53:35.185Z,3.50
2023-04-22T12:56:02.721Z,3.28
2023-04-22T12:58:30.076Z,3.42
2023-04-22T13:00:57.512Z,3.42
2023-04-22T13:03:24.939Z,3.00
2023-04-22T13:05:53.592Z,2.65
2023-04-22T13:08:21.271Z,2.85
2023-04-22T13:10:49.037Z,2.83
2023-04-22T13:13:18.973Z,2.33
2023-04-22T13:15:50.116Z,2.63
2023-04-22T13:18:17.670Z,2.33
2023-04-22T13:20:45.473Z,2.72
2023-04-22T13:23:13.441Z,2.72
2023-04-22T13:25:40.780Z,2.35
2023-04-22T13:28:08.034Z,2.45
2023-04-22T13:30:36.128Z,2.17
2023-04-22T13:33:03.474Z,1.90
2023-04-22T13:35:31.414Z,2.47
2023-04-22T13:37:58.870Z,2.25
2023-04-22T13:44:58.152Z,2.38
2023-04-22T13:47:32.323Z,3.05
2023-04-22T13:50:01.857Z,3.35
2023-04-22T13:52:30.913Z,2.92
2023-04-22T13:54:58.265Z,2.42
2023-04-22T13:57:26.112Z,2.38
2023-04-22T13:59:53.440Z,2.78
2023-04-22T14:02:20.781Z,2.78
2023-04-22T14:04:48.107Z,3.00
2023-04-22T14:07:15.518Z,2.28
2023-04-22T14:09:42.969Z,2.20
2023-04-22T14:12:11.329Z,1.73
2023-04-22T14:14:38.933Z,2.30
2023-04-22T14:17:06.218Z,2.35
2023-04-22T14:19:33.727Z,2.33
2023-04-22T14:22:00.865Z,2.00
2023-04-22T14:24:28.738Z,2.03
2023-04-22T14:26:59.628Z,2.30
2023-04-22T14:29:26.862Z,2.38
2023-04-22T14:31:54.186Z,2.35
2023-04-22T14:34:21.562Z,3.88
2023-04-22T14:36:48.855Z,6.68
2023-04-22T14:39:16.405Z,2.30
2023-04-22T14:41:43.721Z,2.60
2023-04-22T14:44:11.236Z,2.85
2023-04-22T14:46:38.482Z,2.83
2023-04-22T14:49:05.888Z,3.38
2023-04-22T14:51:33.964Z,2.55
2023-04-22T14:54:01.150Z,2.50
2023-04-22T14:56:28.581Z,2.83
2023-04-22T14:58:55.801Z,2.92
2023-04-22T15:01:23.199Z,2.63
2023-04-22T15:03:52.196Z,2.40
2023-04-22T15:06:19.625Z,2.20
2023-04-22T15:08:47.195Z,2.55
2023-04-22T15:11:14.415Z,2.63
2023-04-22T15:13:41.592Z,2.28
2023-04-22T15:16:09.176Z,2.75
2023-04-22T15:18:36.483Z,2.33
2023-04-22T15:21:05.870Z,2.38
2023-04-22T15:23:33.184Z,2.75
2023-04-22T15:26:00.472Z,2.72
2023-04-22T15:28:27.937Z,2.40
2023-04-22T15:30:55.141Z,2.17
2023-04-22T15:33:22.343Z,2.47
2023-04-22T15:35:50.476Z,2.70
2023-04-22T15:38:17.887Z,2.65
2023-04-22T15:40:45.328Z,5.88
2023-04-22T15:43:12.551Z,2.75
2023-04-22T15:45:39.747Z,2.45
2023-04-22T15:48:08.400Z,2.40
2023-04-22T15:50:36.466Z,2.20
2023-04-22T15:53:04.562Z,2.20
2023-04-22T15:55:31.898Z,2.35
2023-04-22T15:57:59.814Z,2.25
2023-04-22T16:00:27.427Z,2.55
2023-04-22T16:02:55.733Z,2.80
2023-04-22T16:05:25.041Z,8.10
2023-04-22T16:07:54.091Z,4.03
2023-04-22T16:10:21.706Z,2.72
2023-04-22T16:12:49.499Z,2.90
2023-04-22T16:15:17.836Z,2.97
2023-04-22T16:17:45.459Z,2.50
2023-04-22T16:20:12.711Z,2.28
2023-04-22T16:22:39.987Z,2.70
2023-04-22T16:25:08.049Z,2.72
2023-04-22T16:27:35.460Z,2.30
2023-04-22T16:30:02.681Z,2.50
2023-04-22T16:32:32.762Z,2.55
2023-04-22T16:35:00.271Z,2.60
2023-04-22T16:37:27.608Z,2.40
2023-04-22T16:39:55.346Z,2.55
2023-04-22T16:42:22.669Z,2.35
2023-04-22T16:44:51.375Z,2.58
2023-04-22T16:47:19.373Z,2.90
2023-04-22T16:49:46.998Z,2.50
2023-04-22T16:52:14.208Z,2.38
2023-04-22T16:54:42.788Z,3.30
2023-04-22T16:57:11.518Z,2.97
2023-04-22T16:59:39.550Z,2.88
2023-04-22T17:02:07.074Z,2.55
2023-04-22T17:04:34.621Z,6.25
2023-04-22T17:07:02.020Z,6.80
2023-04-22T17:09:29.309Z,5.05
2023-04-22T17:11:57.008Z,3.45
2023-04-22T17:14:25.021Z,3.22
2023-04-22T17:16:52.509Z,3.55
2023-04-22T17:19:20.045Z,3.53
2023-04-22T17:21:47.509Z,3.78
2023-04-22T17:24:14.877Z,4.18
2023-04-22T17:26:42.187Z,3.88
2023-04-22T17:29:09.522Z,3.97
2023-04-22T17:31:36.775Z,4.72
2023-04-22T17:34:04.318Z,3.80
2023-04-22T17:36:31.911Z,3.80
2023-04-22T17:38:59.481Z,3.75
2023-04-22T17:41:26.801Z,3.47
2023-04-22T17:43:54.975Z,3.33
2023-04-22T17:46:22.506Z,3.97
2023-04-22T17:48:49.814Z,3.67
2023-04-22T17:51:17.062Z,3.60
2023-04-22T17:53:44.370Z,3.53
2023-04-22T17:56:11.799Z,3.90
2023-04-22T17:58:39.342Z,4.38
2023-04-22T18:01:07.437Z,4.55
2023-04-22T18:03:35.223Z,4.72
2023-04-22T18:06:02.916Z,7.55
2023-04-22T18:08:30.940Z,15.82
2023-04-22T18:10:58.457Z,7.30
2023-04-22T18:13:25.809Z,8.70
2023-04-22T18:15:53.092Z,10.07
2023-04-22T18:18:20.503Z,13.98
2023-04-22T18:20:48.360Z,13.25
2023-04-22T18:23:15.928Z,13.48
2023-04-22T18:25:43.686Z,19.13
2023-04-22T18:28:10.963Z,36.30
2023-04-22T18:30:39.107Z,34.67
2023-04-22T18:33:06.716Z,32.33
2023-04-22T18:35:35.697Z,24.92
2023-04-22T18:38:03.089Z,34.33
2023-04-22T18:40:30.350Z,28.15
2023-04-22T18:42:57.885Z,21.92
2023-04-22T18:45:25.385Z,11.65
2023-04-22T18:47:52.948Z,10.13
2023-04-22T18:50:21.112Z,7.88
2023-04-22T18:52:48.454Z,7.32
2023-04-22T18:55:15.676Z,7.50
2023-04-22T18:57:43.742Z,6.35
2023-04-22T19:00:13.341Z,6.35
2023-04-22T19:02:42.541Z,6.45
2023-04-22T19:05:10.307Z,8.02
2023-04-22T19:07:38.442Z,7.32
2023-04-22T19:10:09.416Z,7.80
2023-04-22T19:12:36.628Z,8.75
2023-04-22T19:15:10.286Z,8.95
2023-04-22T19:17:38.703Z,9.50
2023-04-22T19:20:06.839Z,12.93
2023-04-22T19:22:34.280Z,20.40
2023-04-22T19:25:05.945Z,26.30
2023-04-22T19:27:34.535Z,20.25
2023-04-22T19:30:02.044Z,14.65
2023-04-22T19:32:33.278Z,10.85
2023-04-22T19:35:03.136Z,9.13
2023-04-22T19:37:31.455Z,9.82
2023-04-22T19:39:58.782Z,9.15
2023-04-22T19:42:27.460Z,11.10
2023-04-22T19:44:54.978Z,10.48
2023-04-22T19:47:22.371Z,11.05
2023-04-22T19:49:50.090Z,10.52
2023-04-22T19:52:18.686Z,10.88
2023-04-22T19:54:47.874Z,11.82
2023-04-22T19:57:15.682Z,15.30
2023-04-22T19:59:44.861Z,11.93
2023-04-22T20:02:18.244Z,15.20
2023-04-22T20:04:46.031Z,13.10
2023-04-22T20:07:14.158Z,13.20
2023-04-22T20:09:43.005Z,12.27
2023-04-22T20:12:10.464Z,12.00
2023-04-22T20:14:38.716Z,12.40
2023-04-22T20:17:06.278Z,11.68
2023-04-22T20:19:34.098Z,11.35
2023-04-22T20:22:02.985Z,12.38
2023-04-22T20:24:35.574Z,12.25
2023-04-22T20:27:04.256Z,12.10
2023-04-22T20:29:32.535Z,12.45
2023-04-22T20:31:59.938Z,13.02
2023-04-22T20:34:27.575Z,13.32
2023-04-22T20:36:56.136Z,13.40
2023-04-22T20:39:24.654Z,14.07
2023-04-22T20:41:56.422Z,13.50
2023-04-22T20:44:23.664Z,13.40
2023-04-22T20:46:51.394Z,12.20
2023-04-22T20:49:18.740Z,12.15
2023-04-22T20:51:46.196Z,12.07
2023-04-22T20:54:28.628Z,12.82
2023-04-22T20:56:57.862Z,13.10
2023-04-22T20:59:25.257Z,14.35
2023-04-22T21:01:54.665Z,13.98
2023-04-22T21:04:24.041Z,13.75
2023-04-22T21:06:52.585Z,14.07
2023-04-22T21:09:21.155Z,13.48
2023-04-22T21:11:51.231Z,13.60
2023-04-22T21:14:19.224Z,14.60
2023-04-22T21:17:25.916Z,14.35
2023-04-22T21:20:05.201Z,14.13
2023-04-22T21:22:35.458Z,14.02
2023-04-22T21:25:04.835Z,13.73
2023-04-22T21:27:32.521Z,13.68
2023-04-22T21:30:00.418Z,13.82
2023-04-22T21:32:29.493Z,13.75
2023-04-22T21:34:57.003Z,13.55
2023-04-22T21:37:24.500Z,14.65
2023-04-22T21:39:51.746Z,13.82
2023-04-22T21:42:19.024Z,13.02
2023-04-22T21:44:49.881Z,14.65
2023-04-22T21:47:17.771Z,14.30
2023-04-22T21:49:46.676Z,15.20
2023-04-22T21:52:15.028Z,12.38
2023-04-22T21:54:42.526Z,8.60
2023-04-22T21:57:10.030Z,9.05
2023-04-22T21:59:37.261Z,11.10
2023-04-22T22:02:04.613Z,10.27
2023-04-22T22:04:32.156Z,9.88
2023-04-22T22:06:59.505Z,14.90
2023-04-22T22:09:26.764Z,12.65
2023-04-22T22:11:53.922Z,12.45
2023-04-22T22:14:21.189Z,12.05
2023-04-22T22:16:50.007Z,11.27
2023-04-22T22:19:17.516Z,11.77
2023-04-22T22:21:44.647Z,12.75
2023-04-22T22:24:12.159Z,13.15
2023-04-22T22:26:42.887Z,16.60
2023-04-22T22:29:15.466Z,12.57
2023-04-22T22:31:47.447Z,11.55
2023-04-22T22:34:14.818Z,13.00
2023-04-22T22:36:45.034Z,11.75
2023-04-22T22:39:14.748Z,11.48
2023-04-22T22:41:44.048Z,12.98
2023-04-22T22:44:11.445Z,13.27
2023-04-22T22:46:40.397Z,13.00
2023-04-22T22:49:07.849Z,13.90
2023-04-22T22:51:37.610Z,13.02
2023-04-22T22:54:05.571Z,12.95
2023-04-22T22:56:32.813Z,12.85
2023-04-22T22:59:00.657Z,12.07
2023-04-22T23:01:28.191Z,13.52
2023-04-22T23:03:56.111Z,13.35
2023-04-22T23:06:23.634Z,13.43
2023-04-22T23:08:51.201Z,13.43
2023-04-22T23:11:18.779Z,12.43
2023-04-22T23:13:46.464Z,13.20
2023-04-22T23:16:13.799Z,21.70
2023-04-22T23:18:42.766Z,14.57
2023-04-22T23:21:12.119Z,12.32
2023-04-22T23:23:40.771Z,13.48
2023-04-22T23:26:08.655Z,11.98
2023-04-22T23:28:36.415Z,12.38
2023-04-22T23:31:06.678Z,12.40
2023-04-22T23:33:36.455Z,12.57
2023-04-22T23:36:06.382Z,11.95
2023-04-22T23:38:33.548Z,11.18
2023-04-22T23:41:00.950Z,12.30
2023-04-22T23:43:28.261Z,10.98
2023-04-22T23:45:55.722Z,12.20
2023-04-22T23:48:23.215Z,12.18
2023-04-22T23:50:50.603Z,11.25
2023-04-22T23:53:17.910Z,11.43
2023-04-22T23:55:45.449Z,11.10
2023-04-22T23:58:13.065Z,10.95
